sensor_id;sensor_type;location;lat;lon;timestamp;temperature;humidity
50013;DHT22;35901;48.694;9.476;2023-11-21T00:02:21;6.50;99.90
50013;DHT22;35901;48.694;9.476;2023-11-21T00:04:48;6.50;99.90
50013;DHT22;35901;48.694;9.476;2023-11-21T00:07:14;6.50;99.90
50013;DHT22;35901;48.694;9.476;2023-11-21T00:09:40;6.60;99.90
50013;DHT22;35901;48.694;9.476;2023-11-21T00:12:07;6.60;99.90
50013;DHT22;35901;48.694;9.476;2023-11-21T00:14:38;6.50;99.90
50013;DHT22;35901;48.694;9.476;2023-11-21T00:17:04;6.50;99.90
50013;DHT22;35901;48.694;9.476;2023-11-21T00:19:31;6.50;99.90
50013;DHT22;35901;48.694;9.476;2023-11-21T00:21:57;6.50;99.90
50013;DHT22;35901;48.694;9.476;2023-11-21T00:24:24;6.50;99.90
50013;DHT22;35901;48.694;9.476;2023-11-21T00:26:50;6.50;99.90
50013;DHT22;35901;48.694;9.476;2023-11-21T00:29:19;6.50;99.90
50013;DHT22;35901;48.694;9.476;2023-11-21T00:31:45;6.50;99.90
50013;DHT22;35901;48.694;9.476;2023-11-21T00:34:12;6.50;99.90
50013;DHT22;35901;48.694;9.476;2023-11-21T00:36:38;6.50;99.90
50013;DHT22;35901;48.694;9.476;2023-11-21T00:39:04;6.50;99.90
50013;DHT22;35901;48.694;9.476;2023-11-21T00:41:31;6.50;99.90
50013;DHT22;35901;48.694;9.476;2023-11-21T00:43:57;6.50;99.90
50013;DHT22;35901;48.694;9.476;2023-11-21T00:46:23;6.50;99.90
50013;DHT22;35901;48.694;9.476;2023-11-21T00:52:14;6.50;99.90
50013;DHT22;35901;48.694;9.476;2023-11-21T00:54:41;6.60;99.90
50013;DHT22;35901;48.694;9.476;2023-11-21T00:57:07;6.60;99.90
50013;DHT22;35901;48.694;9.476;2023-11-21T00:59:34;6.60;99.90
50013;DHT22;35901;48.694;9.476;2023-11-21T01:02:00;6.60;99.90
50013;DHT22;35901;48.694;9.476;2023-11-21T01:04:27;6.50;99.90
50013;DHT22;35901;48.694;9.476;2023-11-21T01:06:53;6.50;99.90
50013;DHT22;35901;48.694;9.476;2023-11-21T01:09:19;6.50;99.90
50013;DHT22;35901;48.694;9.476;2023-11-21T01:11:44;6.50;99.90
50013;DHT22;35901;48.694;9.476;2023-11-21T01:14:10;6.50;99.90
50013;DHT22;35901;48.694;9.476;2023-11-21T01:16:36;6.50;99.90
50013;DHT22;35901;48.694;9.476;2023-11-21T01:19:06;6.50;99.90
50013;DHT22;35901;48.694;9.476;2023-11-21T01:21:31;6.50;99.90
50013;DHT22;35901;48.694;9.476;2023-11-21T01:23:57;6.50;99.90
50013;DHT22;35901;48.694;9.476;2023-11-21T01:26:23;6.50;99.90
50013;DHT22;35901;48.694;9.476;2023-11-21T01:28:48;6.50;99.90
50013;DHT22;35901;48.694;9.476;2023-11-21T01:31:17;6.60;99.90
50013;DHT22;35901;48.694;9.476;2023-11-21T01:33:43;6.60;99.90
50013;DHT22;35901;48.694;9.476;2023-11-21T01:36:09;6.70;99.90
50013;DHT22;35901;48.694;9.476;2023-11-21T01:38:35;6.70;99.90
50013;DHT22;35901;48.694;9.476;2023-11-21T01:41:01;6.80;99.90
50013;DHT22;35901;48.694;9.476;2023-11-21T01:43:27;6.80;99.90
50013;DHT22;35901;48.694;9.476;2023-11-21T01:45:54;6.80;99.90
50013;DHT22;35901;48.694;9.476;2023-11-21T01:48:23;6.80;99.90
50013;DHT22;35901;48.694;9.476;2023-11-21T01:50:52;6.90;99.90
50013;DHT22;35901;48.694;9.476;2023-11-21T01:53:18;6.80;99.90
50013;DHT22;35901;48.694;9.476;2023-11-21T01:55:45;6.80;99.90
50013;DHT22;35901;48.694;9.476;2023-11-21T01:58:11;6.80;99.90
50013;DHT22;35901;48.694;9.476;2023-11-21T02:00:38;6.80;99.90
50013;DHT22;35901;48.694;9.476;2023-11-21T02:03:04;6.80;99.90
50013;DHT22;35901;48.694;9.476;2023-11-21T02:05:30;6.80;99.90
50013;DHT22;35901;48.694;9.476;2023-11-21T02:07:57;6.80;99.90
50013;DHT22;35901;48.694;9.476;2023-11-21T02:10:23;6.90;99.90
50013;DHT22;35901;48.694;9.476;2023-11-21T02:12:49;6.90;99.90
50013;DHT22;35901;48.694;9.476;2023-11-21T02:15:18;6.90;99.90
50013;DHT22;35901;48.694;9.476;2023-11-21T02:17:49;6.90;99.90
50013;DHT22;35901;48.694;9.476;2023-11-21T02:20:21;6.90;99.90
50013;DHT22;35901;48.694;9.476;2023-11-21T02:22:52;6.90;99.90
50013;DHT22;35901;48.694;9.476;2023-11-21T02:25:27;6.90;99.90
50013;DHT22;35901;48.694;9.476;2023-11-21T02:27:54;6.90;99.90
50013;DHT22;35901;48.694;9.476;2023-11-21T02:30:23;6.90;99.90
50013;DHT22;35901;48.694;9.476;2023-11-21T02:32:52;6.90;99.90
50013;DHT22;35901;48.694;9.476;2023-11-21T02:35:23;6.90;99.90
50013;DHT22;35901;48.694;9.476;2023-11-21T02:37:49;6.80;99.90
50013;DHT22;35901;48.694;9.476;2023-11-21T02:40:15;6.80;99.90
50013;DHT22;35901;48.694;9.476;2023-11-21T02:42:49;6.80;99.90
50013;DHT22;35901;48.694;9.476;2023-11-21T02:45:21;6.70;99.90
50013;DHT22;35901;48.694;9.476;2023-11-21T02:47:53;6.70;99.90
50013;DHT22;35901;48.694;9.476;2023-11-21T02:50:19;6.70;99.90
50013;DHT22;35901;48.694;9.476;2023-11-21T02:52:45;6.70;99.90
50013;DHT22;35901;48.694;9.476;2023-11-21T02:55:11;6.70;99.90
50013;DHT22;35901;48.694;9.476;2023-11-21T02:57:36;6.70;99.90
50013;DHT22;35901;48.694;9.476;2023-11-21T03:00:02;6.70;99.90
50013;DHT22;35901;48.694;9.476;2023-11-21T03:02:28;6.70;99.90
50013;DHT22;35901;48.694;9.476;2023-11-21T03:04:54;6.70;99.90
50013;DHT22;35901;48.694;9.476;2023-11-21T03:07:20;6.70;99.90
50013;DHT22;35901;48.694;9.476;2023-11-21T03:09:45;6.60;99.90
50013;DHT22;35901;48.694;9.476;2023-11-21T03:12:11;6.60;99.90
50013;DHT22;35901;48.694;9.476;2023-11-21T03:14:41;6.60;99.90
50013;DHT22;35901;48.694;9.476;2023-11-21T03:17:07;6.60;99.90
50013;DHT22;35901;48.694;9.476;2023-11-21T03:19:33;6.60;99.90
50013;DHT22;35901;48.694;9.476;2023-11-21T03:21:58;6.60;99.90
50013;DHT22;35901;48.694;9.476;2023-11-21T03:24:26;6.60;99.90
50013;DHT22;35901;48.694;9.476;2023-11-21T03:26:52;6.60;99.90
50013;DHT22;35901;48.694;9.476;2023-11-21T03:29:18;6.60;99.90
50013;DHT22;35901;48.694;9.476;2023-11-21T03:31:44;6.60;99.90
50013;DHT22;35901;48.694;9.476;2023-11-21T03:34:15;6.60;99.90
50013;DHT22;35901;48.694;9.476;2023-11-21T03:36:41;6.50;99.90
50013;DHT22;35901;48.694;9.476;2023-11-21T03:39:07;6.60;99.90
50013;DHT22;35901;48.694;9.476;2023-11-21T03:41:32;6.50;99.90
50013;DHT22;35901;48.694;9.476;2023-11-21T03:43:59;6.50;99.90
50013;DHT22;35901;48.694;9.476;2023-11-21T03:46:25;6.50;99.90
50013;DHT22;35901;48.694;9.476;2023-11-21T03:48:51;6.50;99.90
50013;DHT22;35901;48.694;9.476;2023-11-21T03:51:16;6.50;99.90
50013;DHT22;35901;48.694;9.476;2023-11-21T03:53:42;6.60;99.90
50013;DHT22;35901;48.694;9.476;2023-11-21T03:56:22;6.60;99.90
50013;DHT22;35901;48.694;9.476;2023-11-21T03:58:48;6.60;99.90
50013;DHT22;35901;48.694;9.476;2023-11-21T04:01:24;6.60;99.90
50013;DHT22;35901;48.694;9.476;2023-11-21T04:03:50;6.60;99.90
50013;DHT22;35901;48.694;9.476;2023-11-21T04:06:17;6.60;99.90
50013;DHT22;35901;48.694;9.476;2023-11-21T04:08:46;6.70;99.90
50013;DHT22;35901;48.694;9.476;2023-11-21T04:11:12;6.60;99.90
50013;DHT22;35901;48.694;9.476;2023-11-21T04:13:38;6.60;99.90
50013;DHT22;35901;48.694;9.476;2023-11-21T04:16:06;6.60;99.90
50013;DHT22;35901;48.694;9.476;2023-11-21T04:18:31;6.50;99.90
50013;DHT22;35901;48.694;9.476;2023-11-21T04:20:57;6.50;99.90
50013;DHT22;35901;48.694;9.476;2023-11-21T04:23:23;6.50;99.90
50013;DHT22;35901;48.694;9.476;2023-11-21T04:25:48;6.60;99.90
50013;DHT22;35901;48.694;9.476;2023-11-21T04:28:28;6.60;99.90
50013;DHT22;35901;48.694;9.476;2023-11-21T04:30:54;6.60;99.90
50013;DHT22;35901;48.694;9.476;2023-11-21T04:33:20;6.60;99.90
50013;DHT22;35901;48.694;9.476;2023-11-21T04:35:46;6.60;99.90
50013;DHT22;35901;48.694;9.476;2023-11-21T04:38:12;6.60;99.90
50013;DHT22;35901;48.694;9.476;2023-11-21T04:40:38;6.50;99.90
50013;DHT22;35901;48.694;9.476;2023-11-21T04:43:04;6.50;99.90
50013;DHT22;35901;48.694;9.476;2023-11-21T04:45:29;6.50;99.90
50013;DHT22;35901;48.694;9.476;2023-11-21T04:47:55;6.50;99.90
50013;DHT22;35901;48.694;9.476;2023-11-21T04:50:21;6.50;99.90
50013;DHT22;35901;48.694;9.476;2023-11-21T04:52:47;6.60;99.90
50013;DHT22;35901;48.694;9.476;2023-11-21T04:55:12;6.60;99.90
50013;DHT22;35901;48.694;9.476;2023-11-21T04:57:39;6.60;99.90
50013;DHT22;35901;48.694;9.476;2023-11-21T05:00:08;6.60;99.90
50013;DHT22;35901;48.694;9.476;2023-11-21T05:02:34;6.60;99.90
50013;DHT22;35901;48.694;9.476;2023-11-21T05:05:01;6.60;99.90
50013;DHT22;35901;48.694;9.476;2023-11-21T05:07:26;6.60;99.90
50013;DHT22;35901;48.694;9.476;2023-11-21T05:09:55;6.50;99.90
50013;DHT22;35901;48.694;9.476;2023-11-21T05:12:24;6.50;99.90
50013;DHT22;35901;48.694;9.476;2023-11-21T05:14:50;6.50;99.90
50013;DHT22;35901;48.694;9.476;2023-11-21T05:17:16;6.50;99.90
50013;DHT22;35901;48.694;9.476;2023-11-21T05:19:42;6.50;99.90
50013;DHT22;35901;48.694;9.476;2023-11-21T05:22:08;6.40;99.90
50013;DHT22;35901;48.694;9.476;2023-11-21T05:24:34;6.40;99.90
50013;DHT22;35901;48.694;9.476;2023-11-21T05:27:00;6.40;99.90
50013;DHT22;35901;48.694;9.476;2023-11-21T05:29:26;6.40;99.90
50013;DHT22;35901;48.694;9.476;2023-11-21T05:31:52;6.30;99.90
50013;DHT22;35901;48.694;9.476;2023-11-21T05:34:18;6.30;99.90
50013;DHT22;35901;48.694;9.476;2023-11-21T05:36:44;6.30;99.90
50013;DHT22;35901;48.694;9.476;2023-11-21T05:39:13;6.30;99.90
50013;DHT22;35901;48.694;9.476;2023-11-21T05:41:39;6.30;99.90
50013;DHT22;35901;48.694;9.476;2023-11-21T05:44:05;6.30;99.90
50013;DHT22;35901;48.694;9.476;2023-11-21T05:46:31;6.30;99.90
50013;DHT22;35901;48.694;9.476;2023-11-21T05:48:56;6.30;99.90
50013;DHT22;35901;48.694;9.476;2023-11-21T05:51:22;6.30;99.90
50013;DHT22;35901;48.694;9.476;2023-11-21T05:53:47;6.30;99.90
50013;DHT22;35901;48.694;9.476;2023-11-21T05:56:13;6.30;99.90
50013;DHT22;35901;48.694;9.476;2023-11-21T05:58:39;6.30;99.90
50013;DHT22;35901;48.694;9.476;2023-11-21T06:01:06;6.20;99.90
50013;DHT22;35901;48.694;9.476;2023-11-21T06:03:35;6.30;99.90
50013;DHT22;35901;48.694;9.476;2023-11-21T06:06:00;6.30;99.90
50013;DHT22;35901;48.694;9.476;2023-11-21T06:08:26;6.30;99.90
50013;DHT22;35901;48.694;9.476;2023-11-21T06:10:52;6.30;99.90
50013;DHT22;35901;48.694;9.476;2023-11-21T06:13:17;6.30;99.90
50013;DHT22;35901;48.694;9.476;2023-11-21T06:15:49;6.20;99.90
50013;DHT22;35901;48.694;9.476;2023-11-21T06:18:15;6.20;99.90
50013;DHT22;35901;48.694;9.476;2023-11-21T06:20:41;6.20;99.90
50013;DHT22;35901;48.694;9.476;2023-11-21T06:23:06;6.20;99.90
50013;DHT22;35901;48.694;9.476;2023-11-21T06:25:32;6.20;99.90
50013;DHT22;35901;48.694;9.476;2023-11-21T06:28:02;6.20;99.90
50013;DHT22;35901;48.694;9.476;2023-11-21T06:33:36;6.20;99.90
50013;DHT22;35901;48.694;9.476;2023-11-21T06:36:02;6.20;99.90
50013;DHT22;35901;48.694;9.476;2023-11-21T06:38:31;6.20;99.90
50013;DHT22;35901;48.694;9.476;2023-11-21T06:40:58;6.20;99.90
50013;DHT22;35901;48.694;9.476;2023-11-21T06:43:24;6.20;99.90
50013;DHT22;35901;48.694;9.476;2023-11-21T06:45:50;6.20;99.90
50013;DHT22;35901;48.694;9.476;2023-11-21T06:48:15;6.20;99.90
50013;DHT22;35901;48.694;9.476;2023-11-21T06:50:41;6.20;99.90
50013;DHT22;35901;48.694;9.476;2023-11-21T06:53:07;6.20;99.90
50013;DHT22;35901;48.694;9.476;2023-11-21T06:55:33;6.20;99.90
50013;DHT22;35901;48.694;9.476;2023-11-21T06:58:00;6.30;99.90
50013;DHT22;35901;48.694;9.476;2023-11-21T07:00:25;6.30;99.90
50013;DHT22;35901;48.694;9.476;2023-11-21T07:02:55;6.30;99.90
50013;DHT22;35901;48.694;9.476;2023-11-21T07:05:21;6.30;99.90
50013;DHT22;35901;48.694;9.476;2023-11-21T07:07:47;6.30;99.90
50013;DHT22;35901;48.694;9.476;2023-11-21T07:10:14;6.30;99.90
50013;DHT22;35901;48.694;9.476;2023-11-21T07:12:40;6.30;99.90
50013;DHT22;35901;48.694;9.476;2023-11-21T07:15:06;6.30;99.90
50013;DHT22;35901;48.694;9.476;2023-11-21T07:17:35;6.30;99.90
50013;DHT22;35901;48.694;9.476;2023-11-21T07:20:01;6.30;99.90
50013;DHT22;35901;48.694;9.476;2023-11-21T07:22:27;6.40;99.90
50013;DHT22;35901;48.694;9.476;2023-11-21T07:24:53;6.40;99.90
50013;DHT22;35901;48.694;9.476;2023-11-21T07:27:19;6.50;99.90
50013;DHT22;35901;48.694;9.476;2023-11-21T07:29:45;6.50;99.90
50013;DHT22;35901;48.694;9.476;2023-11-21T07:32:15;6.50;99.90
50013;DHT22;35901;48.694;9.476;2023-11-21T07:34:41;6.60;99.90
50013;DHT22;35901;48.694;9.476;2023-11-21T07:37:07;6.60;99.90
50013;DHT22;35901;48.694;9.476;2023-11-21T07:39:35;6.70;99.90
50013;DHT22;35901;48.694;9.476;2023-11-21T07:42:01;6.70;99.90
50013;DHT22;35901;48.694;9.476;2023-11-21T07:44:28;6.80;99.90
50013;DHT22;35901;48.694;9.476;2023-11-21T07:46:54;6.80;99.90
50013;DHT22;35901;48.694;9.476;2023-11-21T07:49:23;6.90;99.90
50013;DHT22;35901;48.694;9.476;2023-11-21T07:51:49;6.90;99.90
50013;DHT22;35901;48.694;9.476;2023-11-21T07:54:14;7.00;99.90
50013;DHT22;35901;48.694;9.476;2023-11-21T07:56:41;7.10;99.90
50013;DHT22;35901;48.694;9.476;2023-11-21T07:59:07;7.20;99.90
50013;DHT22;35901;48.694;9.476;2023-11-21T08:01:33;7.30;99.90
50013;DHT22;35901;48.694;9.476;2023-11-21T08:03:59;7.40;99.90
50013;DHT22;35901;48.694;9.476;2023-11-21T08:06:29;7.40;99.90
50013;DHT22;35901;48.694;9.476;2023-11-21T08:08:56;7.50;99.90
50013;DHT22;35901;48.694;9.476;2023-11-21T08:11:22;7.60;99.90
50013;DHT22;35901;48.694;9.476;2023-11-21T08:13:47;7.70;99.90
50013;DHT22;35901;48.694;9.476;2023-11-21T08:16:13;7.70;99.90
50013;DHT22;35901;48.694;9.476;2023-11-21T08:18:39;7.70;99.90
50013;DHT22;35901;48.694;9.476;2023-11-21T08:21:05;7.70;99.90
50013;DHT22;35901;48.694;9.476;2023-11-21T08:23:31;7.80;99.90
50013;DHT22;35901;48.694;9.476;2023-11-21T08:25:57;7.80;99.90
50013;DHT22;35901;48.694;9.476;2023-11-21T08:28:23;7.90;99.90
50013;DHT22;35901;48.694;9.476;2023-11-21T08:30:51;7.90;99.90
50013;DHT22;35901;48.694;9.476;2023-11-21T08:33:17;7.90;99.90
50013;DHT22;35901;48.694;9.476;2023-11-21T08:35:43;7.90;99.90
50013;DHT22;35901;48.694;9.476;2023-11-21T08:38:09;7.90;99.90
50013;DHT22;35901;48.694;9.476;2023-11-21T08:40:36;8.00;99.90
50013;DHT22;35901;48.694;9.476;2023-11-21T08:43:01;8.00;99.90
50013;DHT22;35901;48.694;9.476;2023-11-21T08:45:30;8.00;99.90
50013;DHT22;35901;48.694;9.476;2023-11-21T08:47:56;8.00;99.90
50013;DHT22;35901;48.694;9.476;2023-11-21T08:50:22;8.10;99.90
50013;DHT22;35901;48.694;9.476;2023-11-21T08:52:47;8.10;99.90
50013;DHT22;35901;48.694;9.476;2023-11-21T08:55:13;8.20;99.90
50013;DHT22;35901;48.694;9.476;2023-11-21T08:57:40;8.20;99.90
50013;DHT22;35901;48.694;9.476;2023-11-21T09:00:07;8.30;99.90
50013;DHT22;35901;48.694;9.476;2023-11-21T09:02:39;8.40;99.90
50013;DHT22;35901;48.694;9.476;2023-11-21T09:05:08;8.50;99.90
50013;DHT22;35901;48.694;9.476;2023-11-21T09:07:35;8.50;99.90
50013;DHT22;35901;48.694;9.476;2023-11-21T09:10:01;8.50;99.90
50013;DHT22;35901;48.694;9.476;2023-11-21T09:12:27;8.50;99.90
50013;DHT22;35901;48.694;9.476;2023-11-21T09:14:53;8.50;99.90
50013;DHT22;35901;48.694;9.476;2023-11-21T09:17:19;8.40;99.90
50013;DHT22;35901;48.694;9.476;2023-11-21T09:19:45;8.40;99.90
50013;DHT22;35901;48.694;9.476;2023-11-21T09:22:15;8.30;99.90
50013;DHT22;35901;48.694;9.476;2023-11-21T09:24:41;8.20;99.90
50013;DHT22;35901;48.694;9.476;2023-11-21T09:27:08;8.10;99.90
50013;DHT22;35901;48.694;9.476;2023-11-21T09:29:35;8.10;99.90
50013;DHT22;35901;48.694;9.476;2023-11-21T09:32:00;8.10;99.90
50013;DHT22;35901;48.694;9.476;2023-11-21T09:34:27;8.10;99.90
50013;DHT22;35901;48.694;9.476;2023-11-21T09:36:52;8.00;99.90
50013;DHT22;35901;48.694;9.476;2023-11-21T09:39:19;7.90;99.90
50013;DHT22;35901;48.694;9.476;2023-11-21T09:41:52;7.90;99.90
50013;DHT22;35901;48.694;9.476;2023-11-21T09:47:10;7.90;99.90
50013;DHT22;35901;48.694;9.476;2023-11-21T09:49:39;7.90;99.90
50013;DHT22;35901;48.694;9.476;2023-11-21T09:52:07;8.00;99.90
50013;DHT22;35901;48.694;9.476;2023-11-21T09:54:35;8.10;99.90
50013;DHT22;35901;48.694;9.476;2023-11-21T09:57:02;8.20;99.90
50013;DHT22;35901;48.694;9.476;2023-11-21T09:59:30;8.30;99.90
50013;DHT22;35901;48.694;9.476;2023-11-21T10:01:59;8.30;99.90
50013;DHT22;35901;48.694;9.476;2023-11-21T10:07:50;8.40;99.90
50013;DHT22;35901;48.694;9.476;2023-11-21T10:10:18;8.60;99.90
50013;DHT22;35901;48.694;9.476;2023-11-21T10:12:48;8.70;99.90
50013;DHT22;35901;48.694;9.476;2023-11-21T10:15:15;8.80;99.90
50013;DHT22;35901;48.694;9.476;2023-11-21T10:17:44;8.80;99.90
50013;DHT22;35901;48.694;9.476;2023-11-21T10:20:14;9.00;99.90
50013;DHT22;35901;48.694;9.476;2023-11-21T10:22:41;9.30;99.90
50013;DHT22;35901;48.694;9.476;2023-11-21T10:25:10;9.70;99.90
50013;DHT22;35901;48.694;9.476;2023-11-21T10:27:37;10.00;99.90
50013;DHT22;35901;48.694;9.476;2023-11-21T10:30:05;10.00;99.90
50013;DHT22;35901;48.694;9.476;2023-11-21T10:32:31;10.00;99.90
50013;DHT22;35901;48.694;9.476;2023-11-21T10:38:51;10.00;99.90
50013;DHT22;35901;48.694;9.476;2023-11-21T10:41:18;10.30;99.90
50013;DHT22;35901;48.694;9.476;2023-11-21T10:43:44;10.60;99.90
50013;DHT22;35901;48.694;9.476;2023-11-21T10:46:10;10.60;99.90
50013;DHT22;35901;48.694;9.476;2023-11-21T10:48:35;10.60;99.90
50013;DHT22;35901;48.694;9.476;2023-11-21T10:51:07;10.80;99.90
50013;DHT22;35901;48.694;9.476;2023-11-21T10:53:33;11.30;99.90
50013;DHT22;35901;48.694;9.476;2023-11-21T10:56:05;11.60;99.90
50013;DHT22;35901;48.694;9.476;2023-11-21T10:58:35;11.80;99.90
50013;DHT22;35901;48.694;9.476;2023-11-21T11:01:03;11.90;99.90
50013;DHT22;35901;48.694;9.476;2023-11-21T11:03:32;12.00;99.90
50013;DHT22;35901;48.694;9.476;2023-11-21T11:06:06;11.90;99.90
50013;DHT22;35901;48.694;9.476;2023-11-21T11:08:37;11.70;99.90
50013;DHT22;35901;48.694;9.476;2023-11-21T11:11:04;11.50;99.90
50013;DHT22;35901;48.694;9.476;2023-11-21T11:13:31;11.40;99.90
50013;DHT22;35901;48.694;9.476;2023-11-21T11:16:01;11.10;99.90
50013;DHT22;35901;48.694;9.476;2023-11-21T11:18:32;10.90;99.90
50013;DHT22;35901;48.694;9.476;2023-11-21T11:24:13;10.70;99.90
50013;DHT22;35901;48.694;9.476;2023-11-21T11:29:57;10.50;99.90
50013;DHT22;35901;48.694;9.476;2023-11-21T11:32:53;10.40;99.90
50013;DHT22;35901;48.694;9.476;2023-11-21T11:42:37;10.20;99.90
50013;DHT22;35901;48.694;9.476;2023-11-21T11:45:17;10.00;99.90
50013;DHT22;35901;48.694;9.476;2023-11-21T11:47:47;10.00;99.90
50013;DHT22;35901;48.694;9.476;2023-11-21T11:50:13;9.90;99.90
50013;DHT22;35901;48.694;9.476;2023-11-21T11:52:47;9.90;99.90
50013;DHT22;35901;48.694;9.476;2023-11-21T11:55:15;9.90;99.90
50013;DHT22;35901;48.694;9.476;2023-11-21T11:58:04;9.80;99.90
50013;DHT22;35901;48.694;9.476;2023-11-21T12:00:35;9.80;99.90
50013;DHT22;35901;48.694;9.476;2023-11-21T12:03:04;9.70;99.90
50013;DHT22;35901;48.694;9.476;2023-11-21T12:05:34;9.60;99.90
50013;DHT22;35901;48.694;9.476;2023-11-21T12:08:25;9.60;99.90
50013;DHT22;35901;48.694;9.476;2023-11-21T12:10:57;9.60;99.90
50013;DHT22;35901;48.694;9.476;2023-11-21T12:13:22;9.50;99.90
50013;DHT22;35901;48.694;9.476;2023-11-21T12:15:49;9.40;99.90
50013;DHT22;35901;48.694;9.476;2023-11-21T12:18:14;9.40;99.90
50013;DHT22;35901;48.694;9.476;2023-11-21T12:20:40;9.40;99.90
50013;DHT22;35901;48.694;9.476;2023-11-21T12:23:08;9.30;99.90
50013;DHT22;35901;48.694;9.476;2023-11-21T12:25:34;9.20;99.90
50013;DHT22;35901;48.694;9.476;2023-11-21T12:28:02;9.20;99.90
50013;DHT22;35901;48.694;9.476;2023-11-21T12:30:30;9.10;99.90
50013;DHT22;35901;48.694;9.476;2023-11-21T12:32:57;9.10;99.90
50013;DHT22;35901;48.694;9.476;2023-11-21T12:35:25;9.00;99.90
50013;DHT22;35901;48.694;9.476;2023-11-21T12:41:38;8.90;99.90
50013;DHT22;35901;48.694;9.476;2023-11-21T12:44:11;8.80;99.90
50013;DHT22;35901;48.694;9.476;2023-11-21T12:46:41;8.70;99.90
50013;DHT22;35901;48.694;9.476;2023-11-21T12:49:07;8.60;99.90
50013;DHT22;35901;48.694;9.476;2023-11-21T12:51:33;8.50;99.90
50013;DHT22;35901;48.694;9.476;2023-11-21T12:53:59;8.50;99.90
50013;DHT22;35901;48.694;9.476;2023-11-21T12:56:25;8.50;99.90
50013;DHT22;35901;48.694;9.476;2023-11-21T12:58:53;8.50;99.90
50013;DHT22;35901;48.694;9.476;2023-11-21T13:01:19;8.60;99.90
50013;DHT22;35901;48.694;9.476;2023-11-21T13:03:48;8.60;99.90
50013;DHT22;35901;48.694;9.476;2023-11-21T13:06:17;8.70;99.90
50013;DHT22;35901;48.694;9.476;2023-11-21T13:09:15;8.70;99.90
50013;DHT22;35901;48.694;9.476;2023-11-21T13:11:46;8.80;99.90
50013;DHT22;35901;48.694;9.476;2023-11-21T13:14:12;8.90;99.90
50013;DHT22;35901;48.694;9.476;2023-11-21T13:16:38;9.10;99.90
50013;DHT22;35901;48.694;9.476;2023-11-21T13:19:04;9.20;99.90
50013;DHT22;35901;48.694;9.476;2023-11-21T13:21:30;9.30;99.90
50013;DHT22;35901;48.694;9.476;2023-11-21T13:23:56;9.30;99.90
50013;DHT22;35901;48.694;9.476;2023-11-21T13:26:21;9.40;99.90
50013;DHT22;35901;48.694;9.476;2023-11-21T13:28:49;9.30;99.90
50013;DHT22;35901;48.694;9.476;2023-11-21T13:31:15;9.30;99.90
50013;DHT22;35901;48.694;9.476;2023-11-21T13:33:51;9.30;99.90
50013;DHT22;35901;48.694;9.476;2023-11-21T13:36:22;9.40;99.90
50013;DHT22;35901;48.694;9.476;2023-11-21T13:39:02;9.40;99.90
50013;DHT22;35901;48.694;9.476;2023-11-21T13:41:34;9.40;99.90
50013;DHT22;35901;48.694;9.476;2023-11-21T13:44:00;9.40;99.90
50013;DHT22;35901;48.694;9.476;2023-11-21T13:46:39;9.40;99.90
50013;DHT22;35901;48.694;9.476;2023-11-21T13:49:05;9.40;99.90
50013;DHT22;35901;48.694;9.476;2023-11-21T13:51:36;9.40;99.90
50013;DHT22;35901;48.694;9.476;2023-11-21T13:54:10;9.40;99.90
50013;DHT22;35901;48.694;9.476;2023-11-21T13:56:36;9.40;99.90
50013;DHT22;35901;48.694;9.476;2023-11-21T13:59:02;9.30;99.90
50013;DHT22;35901;48.694;9.476;2023-11-21T14:01:50;9.30;99.90
50013;DHT22;35901;48.694;9.476;2023-11-21T14:04:37;9.30;99.90
50013;DHT22;35901;48.694;9.476;2023-11-21T14:07:36;9.30;99.90
50013;DHT22;35901;48.694;9.476;2023-11-21T14:10:03;9.20;99.90
50013;DHT22;35901;48.694;9.476;2023-11-21T14:12:29;9.20;99.90
50013;DHT22;35901;48.694;9.476;2023-11-21T14:14:59;9.10;99.90
50013;DHT22;35901;48.694;9.476;2023-11-21T14:17:25;9.20;99.90
50013;DHT22;35901;48.694;9.476;2023-11-21T14:19:52;9.10;99.90
50013;DHT22;35901;48.694;9.476;2023-11-21T14:22:20;9.10;99.90
50013;DHT22;35901;48.694;9.476;2023-11-21T14:24:46;9.10;99.90
50013;DHT22;35901;48.694;9.476;2023-11-21T14:27:13;9.00;99.90
50013;DHT22;35901;48.694;9.476;2023-11-21T14:29:40;9.00;99.90
50013;DHT22;35901;48.694;9.476;2023-11-21T14:32:09;8.80;99.90
50013;DHT22;35901;48.694;9.476;2023-11-21T14:34:34;8.60;99.90
50013;DHT22;35901;48.694;9.476;2023-11-21T14:37:01;8.30;99.90
50013;DHT22;35901;48.694;9.476;2023-11-21T14:39:28;8.10;99.90
50013;DHT22;35901;48.694;9.476;2023-11-21T14:41:55;8.00;99.90
50013;DHT22;35901;48.694;9.476;2023-11-21T14:44:25;7.90;99.90
50013;DHT22;35901;48.694;9.476;2023-11-21T14:46:54;7.80;99.90
50013;DHT22;35901;48.694;9.476;2023-11-21T14:49:22;7.80;99.90
50013;DHT22;35901;48.694;9.476;2023-11-21T14:51:55;7.70;99.90
50013;DHT22;35901;48.694;9.476;2023-11-21T14:54:30;7.70;99.90
50013;DHT22;35901;48.694;9.476;2023-11-21T14:57:12;7.70;99.90
50013;DHT22;35901;48.694;9.476;2023-11-21T14:59:48;7.60;99.90
50013;DHT22;35901;48.694;9.476;2023-11-21T15:02:18;7.60;99.90
50013;DHT22;35901;48.694;9.476;2023-11-21T15:04:48;7.60;99.90
50013;DHT22;35901;48.694;9.476;2023-11-21T15:07:17;7.60;99.90
50013;DHT22;35901;48.694;9.476;2023-11-21T15:09:56;7.60;99.90
50013;DHT22;35901;48.694;9.476;2023-11-21T15:12:22;7.60;99.90
50013;DHT22;35901;48.694;9.476;2023-11-21T15:14:52;7.60;99.90
50013;DHT22;35901;48.694;9.476;2023-11-21T15:17:19;7.60;99.90
50013;DHT22;35901;48.694;9.476;2023-11-21T15:19:49;7.60;99.90
50013;DHT22;35901;48.694;9.476;2023-11-21T15:22:16;7.60;99.90
50013;DHT22;35901;48.694;9.476;2023-11-21T15:24:42;7.60;99.90
50013;DHT22;35901;48.694;9.476;2023-11-21T15:27:11;7.60;99.90
50013;DHT22;35901;48.694;9.476;2023-11-21T15:29:38;7.60;99.90
50013;DHT22;35901;48.694;9.476;2023-11-21T15:32:06;7.60;99.90
50013;DHT22;35901;48.694;9.476;2023-11-21T15:34:33;7.60;99.90
50013;DHT22;35901;48.694;9.476;2023-11-21T15:36:59;7.50;99.90
50013;DHT22;35901;48.694;9.476;2023-11-21T15:39:24;7.50;99.90
50013;DHT22;35901;48.694;9.476;2023-11-21T15:41:57;7.50;99.90
50013;DHT22;35901;48.694;9.476;2023-11-21T15:44:24;7.50;99.90
50013;DHT22;35901;48.694;9.476;2023-11-21T15:46:51;7.50;99.90
50013;DHT22;35901;48.694;9.476;2023-11-21T15:49:17;7.50;99.90
50013;DHT22;35901;48.694;9.476;2023-11-21T15:51:47;7.50;99.90
50013;DHT22;35901;48.694;9.476;2023-11-21T15:54:22;7.50;99.90
50013;DHT22;35901;48.694;9.476;2023-11-21T15:56:48;7.50;99.90
50013;DHT22;35901;48.694;9.476;2023-11-21T15:59:15;7.50;99.90
50013;DHT22;35901;48.694;9.476;2023-11-21T16:01:42;7.50;99.90
50013;DHT22;35901;48.694;9.476;2023-11-21T16:04:10;7.50;99.90
50013;DHT22;35901;48.694;9.476;2023-11-21T16:06:37;7.50;99.90
50013;DHT22;35901;48.694;9.476;2023-11-21T16:09:06;7.50;99.90
50013;DHT22;35901;48.694;9.476;2023-11-21T16:11:39;7.50;99.90
50013;DHT22;35901;48.694;9.476;2023-11-21T16:14:05;7.50;99.90
50013;DHT22;35901;48.694;9.476;2023-11-21T16:16:30;7.50;99.90
50013;DHT22;35901;48.694;9.476;2023-11-21T16:18:56;7.50;99.90
50013;DHT22;35901;48.694;9.476;2023-11-21T16:21:21;7.50;99.90
50013;DHT22;35901;48.694;9.476;2023-11-21T16:23:48;7.50;99.90